sensor_id;sensor_type;location;lat;lon;timestamp;P1;durP1;ratioP1;P2;durP2;ratioP2
66163;SDS011;52962;51.088;3.096;2023-02-04T00:01:18;0.60;;;0.60;;
66163;SDS011;52962;51.088;3.096;2023-02-04T00:03:46;0.93;;;0.77;;
66163;SDS011;52962;51.088;3.096;2023-02-04T00:06:14;2.75;;;1.02;;
66163;SDS011;52962;51.088;3.096;2023-02-04T00:11:12;1.25;;;0.70;;
66163;SDS011;52962;51.088;3.096;2023-02-04T00:13:40;3.58;;;0.85;;
66163;SDS011;52962;51.088;3.096;2023-02-04T00:16:08;2.47;;;1.08;;
66163;SDS011;52962;51.088;3.096;2023-02-04T00:18:37;0.75;;;0.63;;
66163;SDS011;52962;51.088;3.096;2023-02-04T00:21:05;1.40;;;0.85;;
66163;SDS011;52962;51.088;3.096;2023-02-04T00:26:02;1.15;;;0.98;;
66163;SDS011;52962;51.088;3.096;2023-02-04T00:28:33;2.03;;;0.98;;
66163;SDS011;52962;51.088;3.096;2023-02-04T00:31:01;1.33;;;0.93;;
66163;SDS011;52962;51.088;3.096;2023-02-04T00:33:29;0.52;;;0.52;;
66163;SDS011;52962;51.088;3.096;2023-02-04T00:35:57;0.35;;;0.35;;
66163;SDS011;52962;51.088;3.096;2023-02-04T00:38:26;0.85;;;0.85;;
66163;SDS011;52962;51.088;3.096;2023-02-04T00:40:54;0.75;;;0.75;;
66163;SDS011;52962;51.088;3.096;2023-02-04T00:43:22;2.55;;;0.47;;
66163;SDS011;52962;51.088;3.096;2023-02-04T00:48:20;0.70;;;0.70;;
66163;SDS011;52962;51.088;3.096;2023-02-04T00:50:48;0.47;;;0.47;;
66163;SDS011;52962;51.088;3.096;2023-02-04T00:55:44;1.20;;;0.75;;
66163;SDS011;52962;51.088;3.096;2023-02-04T00:58:14;3.30;;;0.77;;
66163;SDS011;52962;51.088;3.096;2023-02-04T01:00:43;0.77;;;0.70;;
66163;SDS011;52962;51.088;3.096;2023-02-04T01:03:12;1.65;;;0.52;;
66163;SDS011;52962;51.088;3.096;2023-02-04T01:05:40;0.95;;;0.95;;
66163;SDS011;52962;51.088;3.096;2023-02-04T01:08:09;0.73;;;0.57;;
66163;SDS011;52962;51.088;3.096;2023-02-04T01:10:40;0.85;;;0.50;;
66163;SDS011;52962;51.088;3.096;2023-02-04T01:13:09;1.13;;;1.00;;
66163;SDS011;52962;51.088;3.096;2023-02-04T01:15:37;1.35;;;0.57;;
66163;SDS011;52962;51.088;3.096;2023-02-04T01:18:05;1.05;;;0.70;;
66163;SDS011;52962;51.088;3.096;2023-02-04T01:20:35;0.90;;;0.50;;
66163;SDS011;52962;51.088;3.096;2023-02-04T01:23:03;1.13;;;0.80;;
66163;SDS011;52962;51.088;3.096;2023-02-04T01:25:33;1.52;;;1.00;;
66163;SDS011;52962;51.088;3.096;2023-02-04T01:28:01;0.95;;;0.63;;
66163;SDS011;52962;51.088;3.096;2023-02-04T01:30:29;2.20;;;0.93;;
66163;SDS011;52962;51.088;3.096;2023-02-04T01:32:58;1.25;;;0.80;;
66163;SDS011;52962;51.088;3.096;2023-02-04T01:35:27;0.65;;;0.60;;
66163;SDS011;52962;51.088;3.096;2023-02-04T01:37:56;0.73;;;0.70;;
66163;SDS011;52962;51.088;3.096;2023-02-04T01:40:25;3.92;;;1.13;;
66163;SDS011;52962;51.088;3.096;2023-02-04T01:42:54;2.15;;;0.75;;
66163;SDS011;52962;51.088;3.096;2023-02-04T01:45:22;0.68;;;0.60;;
66163;SDS011;52962;51.088;3.096;2023-02-04T01:47:51;0.55;;;0.43;;
66163;SDS011;52962;51.088;3.096;2023-02-04T01:52:48;0.40;;;0.25;;
66163;SDS011;52962;51.088;3.096;2023-02-04T01:55:18;0.65;;;0.43;;
66163;SDS011;52962;51.088;3.096;2023-02-04T01:57:48;1.15;;;0.52;;
66163;SDS011;52962;51.088;3.096;2023-02-04T02:00:21;4.38;;;0.88;;
66163;SDS011;52962;51.088;3.096;2023-02-04T02:02:52;0.30;;;0.30;;
66163;SDS011;52962;51.088;3.096;2023-02-04T02:05:22;1.75;;;0.57;;
66163;SDS011;52962;51.088;3.096;2023-02-04T02:10:33;0.52;;;0.50;;
66163;SDS011;52962;51.088;3.096;2023-02-04T02:13:03;1.15;;;0.63;;
66163;SDS011;52962;51.088;3.096;2023-02-04T02:15:36;0.45;;;0.45;;
66163;SDS011;52962;51.088;3.096;2023-02-04T02:20:34;2.90;;;0.52;;
66163;SDS011;52962;51.088;3.096;2023-02-04T02:23:03;0.30;;;0.30;;
66163;SDS011;52962;51.088;3.096;2023-02-04T02:25:40;0.60;;;0.50;;
66163;SDS011;52962;51.088;3.096;2023-02-04T02:28:09;0.65;;;0.22;;
66163;SDS011;52962;51.088;3.096;2023-02-04T02:30:39;0.52;;;0.43;;
66163;SDS011;52962;51.088;3.096;2023-02-04T02:33:11;0.57;;;0.57;;
66163;SDS011;52962;51.088;3.096;2023-02-04T02:35:43;0.68;;;0.65;;
66163;SDS011;52962;51.088;3.096;2023-02-04T02:38:13;4.55;;;1.17;;
66163;SDS011;52962;51.088;3.096;2023-02-04T02:40:44;2.53;;;0.50;;
66163;SDS011;52962;51.088;3.096;2023-02-04T02:43:14;0.80;;;0.47;;
66163;SDS011;52962;51.088;3.096;2023-02-04T02:45:45;0.98;;;0.55;;
66163;SDS011;52962;51.088;3.096;2023-02-04T02:48:13;0.40;;;0.40;;
66163;SDS011;52962;51.088;3.096;2023-02-04T02:50:41;1.23;;;0.80;;
66163;SDS011;52962;51.088;3.096;2023-02-04T02:53:12;1.65;;;0.68;;
66163;SDS011;52962;51.088;3.096;2023-02-04T02:55:44;0.90;;;0.47;;
66163;SDS011;52962;51.088;3.096;2023-02-04T02:58:19;0.68;;;0.65;;
66163;SDS011;52962;51.088;3.096;2023-02-04T03:00:51;0.77;;;0.35;;
66163;SDS011;52962;51.088;3.096;2023-02-04T03:03:21;1.38;;;0.60;;
66163;SDS011;52962;51.088;3.096;2023-02-04T03:05:54;0.50;;;0.40;;
66163;SDS011;52962;51.088;3.096;2023-02-04T03:08:26;2.15;;;0.63;;
66163;SDS011;52962;51.088;3.096;2023-02-04T03:10:57;2.65;;;0.68;;
66163;SDS011;52962;51.088;3.096;2023-02-04T03:13:29;3.58;;;0.85;;
66163;SDS011;52962;51.088;3.096;2023-02-04T03:15:59;0.95;;;0.55;;
66163;SDS011;52962;51.088;3.096;2023-02-04T03:20:56;0.88;;;0.57;;
66163;SDS011;52962;51.088;3.096;2023-02-04T03:23:25;0.35;;;0.32;;
66163;SDS011;52962;51.088;3.096;2023-02-04T03:25:54;0.38;;;0.25;;
66163;SDS011;52962;51.088;3.096;2023-02-04T03:28:24;0.28;;;0.28;;
66163;SDS011;52962;51.088;3.096;2023-02-04T03:30:52;4.13;;;0.52;;
66163;SDS011;52962;51.088;3.096;2023-02-04T03:33:22;0.50;;;0.32;;
66163;SDS011;52962;51.088;3.096;2023-02-04T03:35:51;0.73;;;0.73;;
66163;SDS011;52962;51.088;3.096;2023-02-04T03:38:19;4.20;;;0.82;;
66163;SDS011;52962;51.088;3.096;2023-02-04T03:40:47;2.50;;;0.52;;
66163;SDS011;52962;51.088;3.096;2023-02-04T03:43:16;1.95;;;0.85;;
66163;SDS011;52962;51.088;3.096;2023-02-04T03:45:46;1.60;;;0.57;;
66163;SDS011;52962;51.088;3.096;2023-02-04T03:48:14;2.75;;;0.60;;
66163;SDS011;52962;51.088;3.096;2023-02-04T03:50:43;0.50;;;0.30;;
66163;SDS011;52962;51.088;3.096;2023-02-04T03:53:11;0.85;;;0.50;;
66163;SDS011;52962;51.088;3.096;2023-02-04T03:58:07;3.05;;;0.75;;
66163;SDS011;52962;51.088;3.096;2023-02-04T04:00:35;2.05;;;0.82;;
66163;SDS011;52962;51.088;3.096;2023-02-04T04:05:34;0.35;;;0.35;;
66163;SDS011;52962;51.088;3.096;2023-02-04T04:10:31;2.05;;;0.50;;
66163;SDS011;52962;51.088;3.096;2023-02-04T04:12:59;0.47;;;0.47;;
66163;SDS011;52962;51.088;3.096;2023-02-04T04:15:28;3.70;;;0.93;;
66163;SDS011;52962;51.088;3.096;2023-02-04T04:17:57;0.85;;;0.60;;
66163;SDS011;52962;51.088;3.096;2023-02-04T04:20:27;0.45;;;0.22;;
66163;SDS011;52962;51.088;3.096;2023-02-04T04:22:56;0.95;;;0.73;;
66163;SDS011;52962;51.088;3.096;2023-02-04T04:25:24;0.63;;;0.63;;
66163;SDS011;52962;51.088;3.096;2023-02-04T04:27:53;1.42;;;0.43;;
66163;SDS011;52962;51.088;3.096;2023-02-04T04:30:21;2.58;;;0.38;;
66163;SDS011;52962;51.088;3.096;2023-02-04T04:32:49;0.60;;;0.60;;
66163;SDS011;52962;51.088;3.096;2023-02-04T04:35:18;3.33;;;0.45;;
66163;SDS011;52962;51.088;3.096;2023-02-04T04:37:47;2.95;;;0.50;;
66163;SDS011;52962;51.088;3.096;2023-02-04T04:40:16;3.58;;;0.57;;
66163;SDS011;52962;51.088;3.096;2023-02-04T04:42:44;2.13;;;0.55;;
66163;SDS011;52962;51.088;3.096;2023-02-04T04:47:41;7.15;;;0.43;;
66163;SDS011;52962;51.088;3.096;2023-02-04T04:52:38;0.60;;;0.60;;
66163;SDS011;52962;51.088;3.096;2023-02-04T04:55:08;3.05;;;0.60;;
66163;SDS011;52962;51.088;3.096;2023-02-04T04:57:37;4.20;;;0.60;;
66163;SDS011;52962;51.088;3.096;2023-02-04T05:00:05;0.70;;;0.57;;
66163;SDS011;52962;51.088;3.096;2023-02-04T05:02:35;0.38;;;0.30;;
66163;SDS011;52962;51.088;3.096;2023-02-04T05:05:03;0.30;;;0.30;;
66163;SDS011;52962;51.088;3.096;2023-02-04T05:07:32;0.85;;;0.65;;
66163;SDS011;52962;51.088;3.096;2023-02-04T05:10:00;1.40;;;0.50;;
66163;SDS011;52962;51.088;3.096;2023-02-04T05:12:30;0.20;;;0.20;;
66163;SDS011;52962;51.088;3.096;2023-02-04T05:14:59;3.03;;;0.65;;
66163;SDS011;52962;51.088;3.096;2023-02-04T05:17:28;0.68;;;0.47;;
66163;SDS011;52962;51.088;3.096;2023-02-04T05:19:56;0.80;;;0.63;;
66163;SDS011;52962;51.088;3.096;2023-02-04T05:22:24;1.65;;;0.82;;
66163;SDS011;52962;51.088;3.096;2023-02-04T05:24:53;1.95;;;0.70;;
66163;SDS011;52962;51.088;3.096;2023-02-04T05:27:21;0.55;;;0.30;;
66163;SDS011;52962;51.088;3.096;2023-02-04T05:29:50;0.50;;;0.50;;
66163;SDS011;52962;51.088;3.096;2023-02-04T05:32:18;2.50;;;0.50;;
66163;SDS011;52962;51.088;3.096;2023-02-04T05:34:47;1.52;;;0.65;;
66163;SDS011;52962;51.088;3.096;2023-02-04T05:37:15;0.95;;;0.40;;
66163;SDS011;52962;51.088;3.096;2023-02-04T05:39:46;0.50;;;0.50;;
66163;SDS011;52962;51.088;3.096;2023-02-04T05:42:14;1.83;;;0.85;;
66163;SDS011;52962;51.088;3.096;2023-02-04T05:44:42;1.15;;;1.02;;
66163;SDS011;52962;51.088;3.096;2023-02-04T05:49:42;0.73;;;0.60;;
66163;SDS011;52962;51.088;3.096;2023-02-04T05:52:10;0.93;;;0.45;;
66163;SDS011;52962;51.088;3.096;2023-02-04T05:57:07;1.00;;;0.68;;
66163;SDS011;52962;51.088;3.096;2023-02-04T05:59:35;1.85;;;0.47;;
66163;SDS011;52962;51.088;3.096;2023-02-04T06:02:03;1.00;;;0.47;;
66163;SDS011;52962;51.088;3.096;2023-02-04T06:04:33;3.83;;;0.65;;
66163;SDS011;52962;51.088;3.096;2023-02-04T06:07:02;2.00;;;0.70;;
66163;SDS011;52962;51.088;3.096;2023-02-04T06:09:30;0.55;;;0.52;;
66163;SDS011;52962;51.088;3.096;2023-02-04T06:11:58;1.60;;;0.70;;
66163;SDS011;52962;51.088;3.096;2023-02-04T06:14:27;0.77;;;0.45;;
66163;SDS011;52962;51.088;3.096;2023-02-04T06:16:55;2.60;;;0.80;;
66163;SDS011;52962;51.088;3.096;2023-02-04T06:19:25;0.45;;;0.45;;
66163;SDS011;52962;51.088;3.096;2023-02-04T06:21:55;0.30;;;0.30;;
66163;SDS011;52962;51.088;3.096;2023-02-04T06:24:23;1.63;;;0.55;;
66163;SDS011;52962;51.088;3.096;2023-02-04T06:26:51;0.47;;;0.47;;
66163;SDS011;52962;51.088;3.096;2023-02-04T06:29:20;0.55;;;0.50;;
66163;SDS011;52962;51.088;3.096;2023-02-04T06:31:48;2.15;;;0.57;;
66163;SDS011;52962;51.088;3.096;2023-02-04T06:34:17;0.60;;;0.60;;
66163;SDS011;52962;51.088;3.096;2023-02-04T06:36:45;0.45;;;0.43;;
66163;SDS011;52962;51.088;3.096;2023-02-04T06:39:14;0.77;;;0.63;;
66163;SDS011;52962;51.088;3.096;2023-02-04T06:41:42;3.72;;;1.05;;
66163;SDS011;52962;51.088;3.096;2023-02-04T06:46:39;1.02;;;0.75;;
66163;SDS011;52962;51.088;3.096;2023-02-04T06:49:07;0.80;;;0.80;;
66163;SDS011;52962;51.088;3.096;2023-02-04T06:54:04;0.68;;;0.68;;
66163;SDS011;52962;51.088;3.096;2023-02-04T06:56:34;0.63;;;0.55;;
66163;SDS011;52962;51.088;3.096;2023-02-04T06:59:02;4.18;;;0.82;;
66163;SDS011;52962;51.088;3.096;2023-02-04T07:01:30;1.20;;;1.02;;
66163;SDS011;52962;51.088;3.096;2023-02-04T07:03:58;2.22;;;0.93;;
66163;SDS011;52962;51.088;3.096;2023-02-04T07:06:27;0.55;;;0.55;;
66163;SDS011;52962;51.088;3.096;2023-02-04T07:09:01;0.57;;;0.57;;
66163;SDS011;52962;51.088;3.096;2023-02-04T07:11:29;0.93;;;0.70;;
66163;SDS011;52962;51.088;3.096;2023-02-04T07:13:59;3.15;;;1.23;;
66163;SDS011;52962;51.088;3.096;2023-02-04T07:16:27;0.90;;;0.73;;
66163;SDS011;52962;51.088;3.096;2023-02-04T07:18:55;2.15;;;0.98;;
66163;SDS011;52962;51.088;3.096;2023-02-04T07:21:24;1.80;;;0.80;;
66163;SDS011;52962;51.088;3.096;2023-02-04T07:23:53;0.25;;;0.25;;
66163;SDS011;52962;51.088;3.096;2023-02-04T07:26:21;1.20;;;0.98;;
66163;SDS011;52962;51.088;3.096;2023-02-04T07:28:49;0.55;;;0.47;;
66163;SDS011;52962;51.088;3.096;2023-02-04T07:31:19;0.82;;;0.82;;
66163;SDS011;52962;51.088;3.096;2023-02-04T07:33:51;0.90;;;0.40;;
66163;SDS011;52962;51.088;3.096;2023-02-04T07:36:19;0.75;;;0.60;;
66163;SDS011;52962;51.088;3.096;2023-02-04T07:38:47;1.35;;;0.47;;
66163;SDS011;52962;51.088;3.096;2023-02-04T07:41:15;0.68;;;0.68;;
66163;SDS011;52962;51.088;3.096;2023-02-04T07:43:43;0.70;;;0.50;;
66163;SDS011;52962;51.088;3.096;2023-02-04T07:46:12;1.17;;;0.90;;
66163;SDS011;52962;51.088;3.096;2023-02-04T07:48:42;2.40;;;1.10;;
66163;SDS011;52962;51.088;3.096;2023-02-04T07:51:11;2.38;;;0.50;;
66163;SDS011;52962;51.088;3.096;2023-02-04T07:53:39;0.77;;;0.77;;
66163;SDS011;52962;51.088;3.096;2023-02-04T07:56:07;0.50;;;0.50;;
66163;SDS011;52962;51.088;3.096;2023-02-04T07:58:35;1.38;;;0.55;;
66163;SDS011;52962;51.088;3.096;2023-02-04T08:01:03;0.68;;;0.68;;
66163;SDS011;52962;51.088;3.096;2023-02-04T08:03:32;4.68;;;0.68;;
66163;SDS011;52962;51.088;3.096;2023-02-04T08:06:04;0.57;;;0.57;;
66163;SDS011;52962;51.088;3.096;2023-02-04T08:08:32;1.48;;;1.08;;
66163;SDS011;52962;51.088;3.096;2023-02-04T08:11:01;1.13;;;0.93;;
66163;SDS011;52962;51.088;3.096;2023-02-04T08:18:25;3.28;;;0.95;;
66163;SDS011;52962;51.088;3.096;2023-02-04T08:20:55;2.28;;;1.25;;
66163;SDS011;52962;51.088;3.096;2023-02-04T08:23:26;2.88;;;0.95;;
66163;SDS011;52962;51.088;3.096;2023-02-04T08:25:54;2.10;;;0.75;;
66163;SDS011;52962;51.088;3.096;2023-02-04T08:28:22;1.13;;;0.82;;
66163;SDS011;52962;51.088;3.096;2023-02-04T08:30:50;0.60;;;0.60;;
66163;SDS011;52962;51.088;3.096;2023-02-04T08:35:48;2.58;;;0.50;;
66163;SDS011;52962;51.088;3.096;2023-02-04T08:38:17;0.50;;;0.50;;
66163;SDS011;52962;51.088;3.096;2023-02-04T08:40:47;1.33;;;0.90;;
66163;SDS011;52962;51.088;3.096;2023-02-04T08:43:15;1.58;;;0.75;;
66163;SDS011;52962;51.088;3.096;2023-02-04T08:45:43;0.70;;;0.70;;
66163;SDS011;52962;51.088;3.096;2023-02-04T08:48:11;0.57;;;0.57;;
66163;SDS011;52962;51.088;3.096;2023-02-04T08:50:40;1.58;;;0.75;;
66163;SDS011;52962;51.088;3.096;2023-02-04T08:53:08;1.45;;;0.80;;
66163;SDS011;52962;51.088;3.096;2023-02-04T08:55:37;4.53;;;0.70;;
66163;SDS011;52962;51.088;3.096;2023-02-04T08:58:07;5.50;;;0.63;;
66163;SDS011;52962;51.088;3.096;2023-02-04T09:00:35;0.68;;;0.55;;
66163;SDS011;52962;51.088;3.096;2023-02-04T09:03:03;0.80;;;0.60;;
66163;SDS011;52962;51.088;3.096;2023-02-04T09:05:32;0.80;;;0.80;;
66163;SDS011;52962;51.088;3.096;2023-02-04T09:08:00;2.45;;;1.45;;
66163;SDS011;52962;51.088;3.096;2023-02-04T09:10:29;1.85;;;0.70;;
66163;SDS011;52962;51.088;3.096;2023-02-04T09:12:58;0.52;;;0.52;;
66163;SDS011;52962;51.088;3.096;2023-02-04T09:15:27;0.85;;;0.60;;
66163;SDS011;52962;51.088;3.096;2023-02-04T09:17:56;0.65;;;0.50;;
66163;SDS011;52962;51.088;3.096;2023-02-04T09:20:30;0.57;;;0.47;;
66163;SDS011;52962;51.088;3.096;2023-02-04T09:23:01;0.43;;;0.43;;
66163;SDS011;52962;51.088;3.096;2023-02-04T09:25:30;2.35;;;0.40;;
66163;SDS011;52962;51.088;3.096;2023-02-04T09:30:28;0.35;;;0.35;;
66163;SDS011;52962;51.088;3.096;2023-02-04T09:32:56;1.08;;;0.85;;
66163;SDS011;52962;51.088;3.096;2023-02-04T09:35:24;0.82;;;0.73;;
66163;SDS011;52962;51.088;3.096;2023-02-04T09:37:52;0.95;;;0.85;;
66163;SDS011;52962;51.088;3.096;2023-02-04T09:40:21;0.35;;;0.35;;
66163;SDS011;52962;51.088;3.096;2023-02-04T09:42:50;0.80;;;0.32;;
66163;SDS011;52962;51.088;3.096;2023-02-04T09:45:20;2.83;;;0.70;;
66163;SDS011;52962;51.088;3.096;2023-02-04T09:47:52;1.45;;;0.63;;
66163;SDS011;52962;51.088;3.096;2023-02-04T09:50:24;1.42;;;0.63;;
66163;SDS011;52962;51.088;3.096;2023-02-04T09:52:54;1.08;;;0.50;;
66163;SDS011;52962;51.088;3.096;2023-02-04T09:55:27;1.00;;;1.00;;
66163;SDS011;52962;51.088;3.096;2023-02-04T09:57:57;0.73;;;0.73;;
66163;SDS011;52962;51.088;3.096;2023-02-04T10:02:58;2.50;;;0.63;;
66163;SDS011;52962;51.088;3.096;2023-02-04T10:05:29;2.15;;;1.75;;
66163;SDS011;52962;51.088;3.096;2023-02-04T10:07:59;1.02;;;0.90;;
66163;SDS011;52962;51.088;3.096;2023-02-04T10:10:27;1.20;;;1.10;;
66163;SDS011;52962;51.088;3.096;2023-02-04T10:13:00;0.52;;;0.52;;
66163;SDS011;52962;51.088;3.096;2023-02-04T10:15:30;2.00;;;0.60;;
66163;SDS011;52962;51.088;3.096;2023-02-04T10:18:02;0.45;;;0.45;;
66163;SDS011;52962;51.088;3.096;2023-02-04T10:20:34;1.48;;;0.38;;
66163;SDS011;52962;51.088;3.096;2023-02-04T10:23:02;0.47;;;0.47;;
66163;SDS011;52962;51.088;3.096;2023-02-04T10:27:59;2.88;;;0.90;;
66163;SDS011;52962;51.088;3.096;2023-02-04T10:30:28;2.88;;;1.15;;
66163;SDS011;52962;51.088;3.096;2023-02-04T10:33:12;1.35;;;1.13;;
66163;SDS011;52962;51.088;3.096;2023-02-04T10:35:45;1.05;;;0.73;;
66163;SDS011;52962;51.088;3.096;2023-02-04T10:38:15;0.93;;;0.80;;
66163;SDS011;52962;51.088;3.096;2023-02-04T10:40:43;0.73;;;0.63;;
66163;SDS011;52962;51.088;3.096;2023-02-04T10:43:14;2.13;;;0.95;;
66163;SDS011;52962;51.088;3.096;2023-02-04T10:45:43;1.17;;;0.75;;
66163;SDS011;52962;51.088;3.096;2023-02-04T10:48:16;0.70;;;0.70;;
66163;SDS011;52962;51.088;3.096;2023-02-04T10:50:46;0.80;;;0.80;;
66163;SDS011;52962;51.088;3.096;2023-02-04T10:53:15;2.78;;;1.08;;
66163;SDS011;52962;51.088;3.096;2023-02-04T10:56:04;0.90;;;0.90;;
66163;SDS011;52962;51.088;3.096;2023-02-04T10:58:42;1.13;;;0.80;;
66163;SDS011;52962;51.088;3.096;2023-02-04T11:01:10;0.90;;;0.80;;
66163;SDS011;52962;51.088;3.096;2023-02-04T11:03:41;1.08;;;0.98;;
66163;SDS011;52962;51.088;3.096;2023-02-04T11:06:16;0.80;;;0.80;;
66163;SDS011;52962;51.088;3.096;2023-02-04T11:08:48;1.25;;;1.10;;
66163;SDS011;52962;51.088;3.096;2023-02-04T11:11:22;0.95;;;0.77;;
66163;SDS011;52962;51.088;3.096;2023-02-04T11:13:58;1.00;;;0.73;;
66163;SDS011;52962;51.088;3.096;2023-02-04T11:16:29;0.85;;;0.70;;
66163;SDS011;52962;51.088;3.096;2023-02-04T11:19:03;2.08;;;1.13;;
66163;SDS011;52962;51.088;3.096;2023-02-04T11:21:40;0.75;;;0.70;;
66163;SDS011;52962;51.088;3.096;2023-02-04T11:24:21;0.68;;;0.65;;
66163;SDS011;52962;51.088;3.096;2023-02-04T11:26:51;0.52;;;0.52;;
66163;SDS011;52962;51.088;3.096;2023-02-04T11:29:31;1.23;;;0.93;;
66163;SDS011;52962;51.088;3.096;2023-02-04T11:32:04;0.90;;;0.88;;
66163;SDS011;52962;51.088;3.096;2023-02-04T11:34:54;3.58;;;1.25;;
66163;SDS011;52962;51.088;3.096;2023-02-04T11:37:35;1.40;;;0.90;;
66163;SDS011;52962;51.088;3.096;2023-02-04T11:40:21;0.73;;;0.73;;
66163;SDS011;52962;51.088;3.096;2023-02-04T11:45:24;2.47;;;1.23;;
66163;SDS011;52962;51.088;3.096;2023-02-04T11:47:56;1.02;;;0.95;;
66163;SDS011;52962;51.088;3.096;2023-02-04T11:50:29;2.40;;;1.25;;
66163;SDS011;52962;51.088;3.096;2023-02-04T11:52:59;1.33;;;0.88;;
66163;SDS011;52962;51.088;3.096;2023-02-04T11:55:28;1.52;;;0.95;;
66163;SDS011;52962;51.088;3.096;2023-02-04T11:57:59;1.85;;;1.10;;
66163;SDS011;52962;51.088;3.096;2023-02-04T12:00:28;1.30;;;0.88;;
66163;SDS011;52962;51.088;3.096;2023-02-04T12:02:59;0.65;;;0.65;;
66163;SDS011;52962;51.088;3.096;2023-02-04T12:05:39;1.63;;;1.17;;
66163;SDS011;52962;51.088;3.096;2023-02-04T12:08:10;2.47;;;0.70;;
66163;SDS011;52962;51.088;3.096;2023-02-04T12:10:46;2.35;;;0.70;;
66163;SDS011;52962;51.088;3.096;2023-02-04T12:13:17;0.77;;;0.77;;
66163;SDS011;52962;51.088;3.096;2023-02-04T12:15:59;1.63;;;1.08;;
66163;SDS011;52962;51.088;3.096;2023-02-04T12:18:29;2.63;;;1.20;;
66163;SDS011;52962;51.088;3.096;2023-02-04T12:21:01;1.67;;;0.80;;
66163;SDS011;52962;51.088;3.096;2023-02-04T12:23:30;0.63;;;0.55;;
66163;SDS011;52962;51.088;3.096;2023-02-04T12:25:58;1.27;;;0.93;;
66163;SDS011;52962;51.088;3.096;2023-02-04T12:30:54;3.03;;;1.08;;
66163;SDS011;52962;51.088;3.096;2023-02-04T12:33:22;1.38;;;0.85;;
66163;SDS011;52962;51.088;3.096;2023-02-04T12:35:51;1.92;;;0.98;;
66163;SDS011;52962;51.088;3.096;2023-02-04T12:38:21;2.33;;;1.05;;
66163;SDS011;52962;51.088;3.096;2023-02-04T12:40:49;1.35;;;1.08;;
66163;SDS011;52962;51.088;3.096;2023-02-04T12:43:17;1.13;;;0.80;;
66163;SDS011;52962;51.088;3.096;2023-02-04T12:45:45;1.20;;;1.00;;
66163;SDS011;52962;51.088;3.096;2023-02-04T12:48:15;1.40;;;1.00;;
66163;SDS011;52962;51.088;3.096;2023-02-04T12:50:44;3.38;;;0.70;;
66163;SDS011;52962;51.088;3.096;2023-02-04T12:53:12;1.15;;;0.85;;
66163;SDS011;52962;51.088;3.096;2023-02-04T12:55:42;2.40;;;1.13;;
66163;SDS011;52962;51.088;3.096;2023-02-04T12:58:10;0.88;;;0.85;;
66163;SDS011;52962;51.088;3.096;2023-02-04T13:00:38;1.88;;;0.90;;
66163;SDS011;52962;51.088;3.096;2023-02-04T13:03:08;2.40;;;0.75;;
66163;SDS011;52962;51.088;3.096;2023-02-04T13:05:36;2.10;;;1.08;;
66163;SDS011;52962;51.088;3.096;2023-02-04T13:08:05;1.92;;;0.85;;
66163;SDS011;52962;51.088;3.096;2023-02-04T13:10:33;0.63;;;0.60;;
66163;SDS011;52962;51.088;3.096;2023-02-04T13:13:02;1.95;;;0.60;;
66163;SDS011;52962;51.088;3.096;2023-02-04T13:15:31;1.02;;;0.85;;
66163;SDS011;52962;51.088;3.096;2023-02-04T13:18:00;3.05;;;1.02;;
66163;SDS011;52962;51.088;3.096;2023-02-04T13:20:29;3.08;;;1.00;;
66163;SDS011;52962;51.088;3.096;2023-02-04T13:22:57;2.30;;;1.20;;
66163;SDS011;52962;51.088;3.096;2023-02-04T13:25:26;2.42;;;1.38;;
66163;SDS011;52962;51.088;3.096;2023-02-04T13:27:54;1.35;;;1.17;;
66163;SDS011;52962;51.088;3.096;2023-02-04T13:30:24;1.00;;;0.73;;
66163;SDS011;52962;51.088;3.096;2023-02-04T13:32:52;1.27;;;1.15;;
66163;SDS011;52962;51.088;3.096;2023-02-04T13:35:20;1.92;;;1.10;;
66163;SDS011;52962;51.088;3.096;2023-02-04T13:37:49;1.48;;;1.27;;
66163;SDS011;52962;51.088;3.096;2023-02-04T13:40:17;1.63;;;1.10;;
66163;SDS011;52962;51.088;3.096;2023-02-04T13:42:45;1.08;;;0.98;;
66163;SDS011;52962;51.088;3.096;2023-02-04T13:45:13;4.07;;;1.42;;
66163;SDS011;52962;51.088;3.096;2023-02-04T13:47:43;2.05;;;1.60;;
66163;SDS011;52962;51.088;3.096;2023-02-04T13:50:14;2.45;;;1.40;;
66163;SDS011;52962;51.088;3.096;2023-02-04T13:52:42;1.25;;;1.10;;
66163;SDS011;52962;51.088;3.096;2023-02-04T13:55:11;1.48;;;1.27;;
66163;SDS011;52962;51.088;3.096;2023-02-04T13:57:39;3.10;;;1.65;;
66163;SDS011;52962;51.088;3.096;2023-02-04T14:00:07;1.23;;;1.13;;
66163;SDS011;52962;51.088;3.096;2023-02-04T14:02:39;2.80;;;1.58;;
66163;SDS011;52962;51.088;3.096;2023-02-04T14:05:09;1.10;;;0.90;;
66163;SDS011;52962;51.088;3.096;2023-02-04T14:07:38;2.33;;;1.38;;
66163;SDS011;52962;51.088;3.096;2023-02-04T14:12:35;1.33;;;1.23;;
66163;SDS011;52962;51.088;3.096;2023-02-04T14:15:03;2.40;;;1.40;;
66163;SDS011;52962;51.088;3.096;2023-02-04T14:17:32;1.55;;;1.42;;
66163;SDS011;52962;51.088;3.096;2023-02-04T14:22:30;1.80;;;0.98;;
66163;SDS011;52962;51.088;3.096;2023-02-04T14:24:58;1.30;;;1.20;;
66163;SDS011;52962;51.088;3.096;2023-02-04T14:27:27;1.33;;;1.23;;
66163;SDS011;52962;51.088;3.096;2023-02-04T14:29:56;6.03;;;2.30;;
66163;SDS011;52962;51.088;3.096;2023-02-04T14:32:24;1.77;;;1.67;;
66163;SDS011;52962;51.088;3.096;2023-02-04T14:34:52;2.03;;;1.65;;
66163;SDS011;52962;51.088;3.096;2023-02-04T14:37:20;2.80;;;1.73;;
66163;SDS011;52962;51.088;3.096;2023-02-04T14:39:52;2.85;;;1.52;;
66163;SDS011;52962;51.088;3.096;2023-02-04T14:42:21;1.80;;;1.67;;
66163;SDS011;52962;51.088;3.096;2023-02-04T14:44:49;2.78;;;1.77;;
66163;SDS011;52962;51.088;3.096;2023-02-04T14:47:19;1.55;;;1.20;;
66163;SDS011;52962;51.088;3.096;2023-02-04T14:49:48;2.17;;;1.98;;
66163;SDS011;52962;51.088;3.096;2023-02-04T14:52:16;1.08;;;0.68;;
66163;SDS011;52962;51.088;3.096;2023-02-04T14:54:46;2.05;;;1.85;;
66163;SDS011;52962;51.088;3.096;2023-02-04T14:57:16;1.95;;;1.65;;
66163;SDS011;52962;51.088;3.096;2023-02-04T14:59:44;2.75;;;1.55;;
66163;SDS011;52962;51.088;3.096;2023-02-04T15:02:13;1.98;;;1.23;;
66163;SDS011;52962;51.088;3.096;2023-02-04T15:04:41;2.33;;;1.80;;
66163;SDS011;52962;51.088;3.096;2023-02-04T15:07:09;3.42;;;2.08;;
66163;SDS011;52962;51.088;3.096;2023-02-04T15:09:39;2.00;;;1.80;;
66163;SDS011;52962;51.088;3.096;2023-02-04T15:12:08;1.35;;;1.25;;
66163;SDS011;52962;51.088;3.096;2023-02-04T15:14:37;1.58;;;1.48;;
66163;SDS011;52962;51.088;3.096;2023-02-04T15:17:06;1.30;;;1.17;;
66163;SDS011;52962;51.088;3.096;2023-02-04T15:19:34;6.10;;;2.00;;
66163;SDS011;52962;51.088;3.096;2023-02-04T15:22:02;2.13;;;1.60;;
66163;SDS011;52962;51.088;3.096;2023-02-04T15:24:32;2.03;;;1.73;;
66163;SDS011;52962;51.088;3.096;2023-02-04T15:27:00;3.30;;;1.02;;
66163;SDS011;52962;51.088;3.096;2023-02-04T15:29:28;2.45;;;1.92;;
66163;SDS011;52962;51.088;3.096;2023-02-04T15:31:58;2.50;;;1.70;;
66163;SDS011;52962;51.088;3.096;2023-02-04T15:34:27;1.83;;;1.58;;
66163;SDS011;52962;51.088;3.096;2023-02-04T15:36:55;2.00;;;1.80;;
66163;SDS011;52962;51.088;3.096;2023-02-04T15:39:23;2.65;;;1.58;;
66163;SDS011;52962;51.088;3.096;2023-02-04T15:41:53;2.47;;;1.73;;
66163;SDS011;52962;51.088;3.096;2023-02-04T15:44:21;2.75;;;1.52;;
66163;SDS011;52962;51.088;3.096;2023-02-04T15:46:49;2.08;;;1.48;;
66163;SDS011;52962;51.088;3.096;2023-02-04T15:49:21;1.63;;;1.52;;
66163;SDS011;52962;51.088;3.096;2023-02-04T15:51:50;2.55;;;2.22;;
66163;SDS011;52962;51.088;3.096;2023-02-04T15:54:18;2.45;;;1.77;;
66163;SDS011;52962;51.088;3.096;2023-02-04T15:56:47;2.17;;;1.70;;
66163;SDS011;52962;51.088;3.096;2023-02-04T15:59:15;3.95;;;1.95;;
66163;SDS011;52962;51.088;3.096;2023-02-04T16:01:43;3.88;;;1.95;;
66163;SDS011;52962;51.088;3.096;2023-02-04T16:04:11;1.67;;;1.48;;
66163;SDS011;52962;51.088;3.096;2023-02-04T16:07:06;2.95;;;1.88;;
66163;SDS011;52962;51.088;3.096;2023-02-04T16:09:36;1.30;;;1.20;;